HEGO weather

El Gouna Airport
El Gouna, Red Sea Governorate, Egypt

Public forecast

Using degrees Celsius for public forecast. Weather courtesy of forecast.io.

METAR (pilot weather report)

Closest report is Hurghada International Airport, 13.3 nm (24.7 km) SSE. Retrieved 2019/04/20 19:00 UTC (49 minutes ago):

HEGN 201900Z 00000KT CAVOK 21/03 Q1015 NOSIG

TAF (pilot weather forecast)

Closest forecast is Hurghada International Airport, 13.3 nm (24.7 km) SSE. Retrieved 2019/04/20 18:42 UTC (1 hour ago):

TAF HEGN 201700Z 2018/2124 33008G20KT CAVOK